createdAt,value
2017-05-13T00:00:21.630Z,22.2
2017-05-13T00:01:29.718Z,22.1
2017-05-13T00:02:37.806Z,22.2
2017-05-13T00:03:45.892Z,22.2
2017-05-13T00:04:53.981Z,22.2
2017-05-13T00:06:02.065Z,22.2
2017-05-13T00:07:10.153Z,22.2
2017-05-13T00:08:18.242Z,22.2
2017-05-13T00:09:26.327Z,22.2
2017-05-13T00:10:34.416Z,22.2
2017-05-13T00:11:42.501Z,22.2
2017-05-13T00:12:50.598Z,22.2
2017-05-13T00:13:58.689Z,22.3
2017-05-13T00:15:06.777Z,22.3
2017-05-13T00:16:14.864Z,22.3
2017-05-13T00:17:22.957Z,22.2
2017-05-13T00:18:31.038Z,22.3
2017-05-13T00:19:39.132Z,22.3
2017-05-13T00:20:47.219Z,22.2
2017-05-13T00:21:55.311Z,22.3
2017-05-13T00:23:03.392Z,22.2
2017-05-13T00:24:11.480Z,22.3
2017-05-13T00:25:19.568Z,22.3
2017-05-13T00:26:27.652Z,22.4
2017-05-13T00:27:35.745Z,22.3
2017-05-13T00:28:43.832Z,22.3
2017-05-13T00:29:51.925Z,22.4
2017-05-13T00:31:00.005Z,22.4
2017-05-13T00:32:08.095Z,22.4
2017-05-13T00:33:16.179Z,22.4
2017-05-13T00:34:24.267Z,22.4
2017-05-13T00:35:32.355Z,22.4
2017-05-13T00:36:40.442Z,22.4
2017-05-13T00:37:48.533Z,22.4
2017-05-13T00:38:56.625Z,22.5
2017-05-13T00:40:04.704Z,22.4
2017-05-13T00:41:12.793Z,22.4
2017-05-13T00:42:20.880Z,22.5
2017-05-13T00:43:28.990Z,22.5
2017-05-13T00:44:37.053Z,22.5
2017-05-13T00:45:45.145Z,22.5
2017-05-13T00:46:53.227Z,22.5
2017-05-13T00:48:01.314Z,22.5
2017-05-13T00:49:09.404Z,22.5
2017-05-13T00:50:17.495Z,22.5
2017-05-13T00:51:25.578Z,22.5
2017-05-13T00:52:33.664Z,22.5
2017-05-13T00:53:41.754Z,22.5
2017-05-13T00:54:49.845Z,22.5
2017-05-13T00:55:57.931Z,22.6
2017-05-13T00:57:06.026Z,22.5
2017-05-13T00:58:14.108Z,22.6
2017-05-13T00:59:22.192Z,22.5
2017-05-13T01:00:30.283Z,22.6
2017-05-13T01:01:38.370Z,22.5
2017-05-13T01:02:46.458Z,22.6
2017-05-13T01:03:54.543Z,22.5
2017-05-13T01:05:02.629Z,22.6
2017-05-13T01:06:10.775Z,22.6
2017-05-13T01:07:18.809Z,22.6
2017-05-13T01:08:26.894Z,22.6
2017-05-13T01:09:34.982Z,22.6
2017-05-13T01:10:43.077Z,22.6
2017-05-13T01:11:51.155Z,22.6
2017-05-13T01:12:59.245Z,22.6
2017-05-13T01:14:07.327Z,22.6
2017-05-13T01:15:15.416Z,22.6
2017-05-13T01:16:23.504Z,22.6
2017-05-13T01:17:31.602Z,22.6
2017-05-13T01:18:39.683Z,22.7
2017-05-13T01:19:47.772Z,22.7
2017-05-13T01:20:55.857Z,22.6
2017-05-13T01:22:03.941Z,22.6
2017-05-13T01:23:12.030Z,22.6
2017-05-13T01:24:20.114Z,22.6
2017-05-13T01:25:28.201Z,22.6
2017-05-13T01:26:36.298Z,22.6
2017-05-13T01:27:44.381Z,22.6
2017-05-13T01:28:52.468Z,22.6
2017-05-13T01:30:00.725Z,22.6
2017-05-13T01:30:00.742Z,22.6
2017-05-13T01:31:08.639Z,22.6
2017-05-13T01:32:16.730Z,22.6
2017-05-13T01:33:24.813Z,22.6
2017-05-13T01:34:32.904Z,22.6
2017-05-13T01:35:40.994Z,22.7
2017-05-13T01:36:49.083Z,22.7
2017-05-13T01:37:57.166Z,22.6
2017-05-13T01:39:05.255Z,22.6
2017-05-13T01:40:13.345Z,22.6
2017-05-13T01:41:21.427Z,22.6
2017-05-13T01:42:29.517Z,22.6
2017-05-13T01:43:37.604Z,22.6
2017-05-13T01:44:45.693Z,22.7
2017-05-13T01:45:53.783Z,22.6
2017-05-13T01:47:01.867Z,22.7
2017-05-13T01:48:09.959Z,22.6
2017-05-13T01:49:18.048Z,22.6
2017-05-13T01:50:26.133Z,22.6
2017-05-13T01:51:34.220Z,22.6
2017-05-13T01:52:42.305Z,22.6
2017-05-13T01:53:50.395Z,22.6
2017-05-13T01:54:58.482Z,22.6
2017-05-13T01:56:06.568Z,22.6
2017-05-13T01:57:14.654Z,22.6
2017-05-13T01:58:22.743Z,22.6
2017-05-13T01:59:30.836Z,22.6
2017-05-13T02:00:38.922Z,22.6
2017-05-13T02:01:47.016Z,22.6
2017-05-13T02:02:55.222Z,22.6
2017-05-13T02:04:03.272Z,22.6
2017-05-13T02:05:11.275Z,22.6
2017-05-13T02:06:19.366Z,22.6
2017-05-13T02:07:27.458Z,22.6
2017-05-13T02:08:35.543Z,22.7
2017-05-13T02:09:43.628Z,22.6
2017-05-13T02:10:51.717Z,22.6
2017-05-13T02:11:59.805Z,22.6
2017-05-13T02:13:07.898Z,22.6
2017-05-13T02:14:15.982Z,22.7
2017-05-13T02:15:24.071Z,22.7
2017-05-13T02:16:32.157Z,22.7
2017-05-13T02:17:40.256Z,22.6
2017-05-13T02:18:48.336Z,22.6
2017-05-13T02:19:56.423Z,22.6
2017-05-13T02:21:04.568Z,22.6
2017-05-13T02:22:12.594Z,22.6
2017-05-13T02:23:20.682Z,22.6
2017-05-13T02:24:28.772Z,22.6
2017-05-13T02:25:36.858Z,22.6
2017-05-13T02:26:44.948Z,22.6
2017-05-13T02:27:53.034Z,22.6
2017-05-13T02:29:01.117Z,22.6
2017-05-13T02:30:09.206Z,22.6
2017-05-13T02:31:17.297Z,22.6
2017-05-13T02:32:25.388Z,22.6
2017-05-13T02:33:33.479Z,22.6
2017-05-13T02:34:41.565Z,22.6
2017-05-13T02:35:49.656Z,22.6
2017-05-13T02:36:57.742Z,22.6
2017-05-13T02:38:05.853Z,22.6
2017-05-13T02:39:13.918Z,22.6
2017-05-13T02:40:22.002Z,22.6
2017-05-13T02:41:30.092Z,22.6
2017-05-13T02:42:38.183Z,22.6
2017-05-13T02:43:46.270Z,22.6
2017-05-13T02:44:54.356Z,22.6
2017-05-13T02:46:02.439Z,22.6
2017-05-13T02:47:10.534Z,22.6
2017-05-13T02:48:18.614Z,22.6
2017-05-13T02:49:26.703Z,22.6
2017-05-13T02:50:34.790Z,22.5
2017-05-13T02:51:42.884Z,22.5
2017-05-13T02:52:50.971Z,22.6
2017-05-13T02:53:59.055Z,22.5
2017-05-13T02:55:07.193Z,22.5
2017-05-13T02:56:15.227Z,22.5
2017-05-13T02:57:23.319Z,22.5
2017-05-13T02:58:31.404Z,22.6
2017-05-13T02:59:39.496Z,22.5
2017-05-13T03:00:47.581Z,22.5
2017-05-13T03:01:55.670Z,22.5
2017-05-13T03:03:03.758Z,22.5
2017-05-13T03:04:11.843Z,22.5
2017-05-13T03:05:19.929Z,22.5
2017-05-13T03:06:28.017Z,22.6
2017-05-13T03:07:36.108Z,22.5
2017-05-13T03:08:44.193Z,22.4
2017-05-13T03:09:52.304Z,22.5
2017-05-13T03:11:00.370Z,22.5
2017-05-13T03:12:08.460Z,22.6
2017-05-13T03:13:16.548Z,22.6
2017-05-13T03:14:24.632Z,22.4
2017-05-13T03:15:32.737Z,22.6
2017-05-13T03:16:40.812Z,22.5
2017-05-13T03:17:48.900Z,22.5
2017-05-13T03:18:56.988Z,22.4
2017-05-13T03:20:05.075Z,22.4
2017-05-13T03:21:13.164Z,22.5
2017-05-13T03:22:21.262Z,22.4
2017-05-13T03:23:29.364Z,22.4
2017-05-13T03:24:37.423Z,22.4
2017-05-13T03:25:45.514Z,22.3
2017-05-13T03:26:53.599Z,22.4
2017-05-13T03:28:01.696Z,22.4
2017-05-13T03:29:09.879Z,22.4
2017-05-13T03:30:17.869Z,22.4
2017-05-13T03:31:25.968Z,22.4
2017-05-13T03:32:34.056Z,22.4
2017-05-13T03:33:42.139Z,22.3
2017-05-13T03:34:50.228Z,22.4
2017-05-13T03:35:58.316Z,22.4
2017-05-13T03:37:06.404Z,22.3
2017-05-13T03:38:14.493Z,22.3
2017-05-13T03:39:22.579Z,22.4
2017-05-13T03:40:30.663Z,22.3
2017-05-13T03:41:38.749Z,22.3
2017-05-13T03:42:46.838Z,22.3
2017-05-13T03:43:54.928Z,22.3
2017-05-13T03:45:03.016Z,22.3
2017-05-13T03:46:11.101Z,22.3
2017-05-13T03:47:19.190Z,22.2
2017-05-13T03:48:27.278Z,22.3
2017-05-13T03:49:35.367Z,22.3
2017-05-13T03:50:43.461Z,22.3
2017-05-13T03:51:51.551Z,22.3
2017-05-13T03:52:59.641Z,22.2
2017-05-13T03:54:07.731Z,22.3
2017-05-13T03:55:15.809Z,22.2
2017-05-13T03:56:23.899Z,22.2
2017-05-13T03:57:31.984Z,22.2
2017-05-13T03:58:40.072Z,22.2
2017-05-13T03:59:48.170Z,22.2
2017-05-13T04:00:56.244Z,22.2
2017-05-13T04:02:04.331Z,22.3
2017-05-13T04:03:12.420Z,22.2
2017-05-13T04:04:20.507Z,22.3
2017-05-13T04:05:28.595Z,22.2
2017-05-13T04:06:36.685Z,22.2
2017-05-13T04:07:44.768Z,22.2
2017-05-13T04:08:52.854Z,22.1
2017-05-13T04:10:00.943Z,22.2
2017-05-13T04:11:09.033Z,22.2
2017-05-13T04:12:17.120Z,22.1
2017-05-13T04:13:25.203Z,22.2
2017-05-13T04:14:33.290Z,22.1
2017-05-13T04:15:41.379Z,22.1
2017-05-13T04:16:49.465Z,22.1
2017-05-13T04:17:57.557Z,22.2
2017-05-13T04:19:05.642Z,22.0
2017-05-13T04:20:13.733Z,22.1
2017-05-13T04:21:21.817Z,22.1
2017-05-13T04:22:29.907Z,22.1
2017-05-13T04:23:37.992Z,22.1
2017-05-13T04:24:46.081Z,22.1
2017-05-13T04:25:54.169Z,22.1
2017-05-13T04:27:02.253Z,22.0
2017-05-13T04:28:10.337Z,22.1
2017-05-13T04:29:18.423Z,22.1
2017-05-13T04:30:26.509Z,22.1
2017-05-13T04:31:34.600Z,22.0
2017-05-13T04:32:42.688Z,22.1
2017-05-13T04:33:50.775Z,22.0
2017-05-13T04:34:58.866Z,22.1
2017-05-13T04:36:06.947Z,22.1
2017-05-13T04:37:15.034Z,22.0
2017-05-13T04:38:23.124Z,22.0
2017-05-13T04:39:31.214Z,22.1
2017-05-13T04:40:39.304Z,22.0
2017-05-13T04:41:47.416Z,21.9
2017-05-13T04:42:55.480Z,22.1
2017-05-13T04:44:03.572Z,21.9
2017-05-13T04:45:11.649Z,21.9
2017-05-13T04:46:19.734Z,21.9
2017-05-13T04:47:27.824Z,21.9
2017-05-13T04:48:35.909Z,21.9
2017-05-13T04:49:43.995Z,22.0
2017-05-13T04:50:52.082Z,22.0
2017-05-13T04:52:00.170Z,22.0
2017-05-13T04:53:08.266Z,21.9
2017-05-13T04:54:16.350Z,22.0
2017-05-13T04:55:24.440Z,21.9
2017-05-13T04:56:32.524Z,21.9
2017-05-13T04:57:40.609Z,21.9
2017-05-13T04:58:49.192Z,21.9
2017-05-13T04:59:56.786Z,21.9
2017-05-13T05:01:04.874Z,21.9
2017-05-13T05:02:12.962Z,21.9
2017-05-13T05:03:21.053Z,21.9
2017-05-13T05:04:29.140Z,21.9
2017-05-13T05:05:37.223Z,21.9
2017-05-13T05:06:45.315Z,21.9
2017-05-13T05:07:53.409Z,21.8
2017-05-13T05:09:01.486Z,21.9
2017-05-13T05:10:09.580Z,21.8
2017-05-13T05:11:17.685Z,21.9
2017-05-13T05:12:25.748Z,21.8
2017-05-13T05:13:33.877Z,21.8
2017-05-13T05:14:41.921Z,21.8
2017-05-13T05:15:50.009Z,21.8
2017-05-13T05:16:58.137Z,21.8
2017-05-13T05:18:06.402Z,21.8
2017-05-13T05:19:14.593Z,21.8
2017-05-13T05:20:22.458Z,21.8
2017-05-13T05:21:30.458Z,21.8
2017-05-13T05:22:38.530Z,21.7
2017-05-13T05:23:46.632Z,21.8
2017-05-13T05:24:54.708Z,21.8
2017-05-13T05:26:02.794Z,21.8
2017-05-13T05:27:10.881Z,21.7
2017-05-13T05:28:18.967Z,21.8
2017-05-13T05:29:27.054Z,21.7
2017-05-13T05:30:35.135Z,21.8
2017-05-13T05:31:43.237Z,21.8
2017-05-13T05:32:51.317Z,21.7
2017-05-13T05:33:59.397Z,21.7
2017-05-13T05:35:07.485Z,21.7
2017-05-13T05:36:15.573Z,21.7
2017-05-13T05:37:23.659Z,21.7
2017-05-13T05:38:31.750Z,21.7
2017-05-13T05:39:39.845Z,21.7
2017-05-13T05:40:47.917Z,21.6
2017-05-13T05:41:56.008Z,21.8
2017-05-13T05:43:04.092Z,21.8
2017-05-13T05:44:12.181Z,21.8
2017-05-13T05:45:20.267Z,21.7
2017-05-13T05:46:28.352Z,21.7
2017-05-13T05:47:36.522Z,21.7
2017-05-13T05:48:45.322Z,21.7
2017-05-13T05:49:52.613Z,21.6
2017-05-13T05:51:01.579Z,21.7
2017-05-13T05:52:08.847Z,21.6
2017-05-13T05:53:16.878Z,21.7
2017-05-13T05:54:24.959Z,21.7
2017-05-13T05:55:33.292Z,21.6
2017-05-13T05:56:41.135Z,21.7
2017-05-13T05:57:49.222Z,21.6
2017-05-13T05:58:57.306Z,21.7
2017-05-13T06:00:05.787Z,21.7
2017-05-13T06:01:13.949Z,21.6
2017-05-13T06:02:21.591Z,21.6
2017-05-13T06:03:29.655Z,21.6
2017-05-13T06:04:37.737Z,21.7
2017-05-13T06:05:45.823Z,21.7
2017-05-13T06:06:54.003Z,21.7
2017-05-13T06:08:02.003Z,21.6
2017-05-13T06:09:10.088Z,21.7
2017-05-13T06:10:18.174Z,21.6
2017-05-13T06:11:26.266Z,21.7
2017-05-13T06:12:35.035Z,21.6
2017-05-13T06:13:42.436Z,21.6
2017-05-13T06:14:50.524Z,21.6
2017-05-13T06:15:58.634Z,21.6
2017-05-13T06:17:06.722Z,21.7
2017-05-13T06:18:15.166Z,21.6
2017-05-13T06:19:22.939Z,21.6
2017-05-13T06:20:30.963Z,21.6
2017-05-13T06:21:39.050Z,21.7
2017-05-13T06:22:47.137Z,21.7
2017-05-13T06:23:55.492Z,21.6
2017-05-13T06:25:03.303Z,21.6
2017-05-13T06:26:11.390Z,21.5
2017-05-13T06:27:19.478Z,21.6
2017-05-13T06:28:28.253Z,21.6
2017-05-13T06:29:36.150Z,21.6
2017-05-13T06:30:43.970Z,21.6
2017-05-13T06:31:51.825Z,21.6
2017-05-13T06:32:59.913Z,21.6
2017-05-13T06:34:08.426Z,21.6
2017-05-13T06:35:16.083Z,21.7
2017-05-13T06:36:24.565Z,21.6
2017-05-13T06:37:32.269Z,21.6
2017-05-13T06:38:40.346Z,21.6
2017-05-13T06:39:48.434Z,21.6
2017-05-13T06:40:56.522Z,21.6
2017-05-13T06:42:04.621Z,21.6
2017-05-13T06:43:12.690Z,21.7
2017-05-13T06:44:20.776Z,21.6
2017-05-13T06:45:28.863Z,21.6
2017-05-13T06:46:36.954Z,21.6
2017-05-13T06:47:45.106Z,21.7
2017-05-13T06:48:53.126Z,21.7
2017-05-13T06:50:01.210Z,21.6
2017-05-13T06:51:09.300Z,21.6
2017-05-13T06:52:17.408Z,21.6
2017-05-13T06:53:25.471Z,21.6
2017-05-13T06:54:33.559Z,21.6
2017-05-13T06:55:41.644Z,21.6
2017-05-13T06:56:49.730Z,21.6
2017-05-13T06:57:57.818Z,21.6
2017-05-13T06:59:05.904Z,21.6
2017-05-13T07:00:13.991Z,21.6
2017-05-13T07:01:22.079Z,21.5
2017-05-13T07:02:30.162Z,21.6
2017-05-13T07:03:38.254Z,21.6
2017-05-13T07:04:46.402Z,21.6
2017-05-13T07:05:54.420Z,21.6
2017-05-13T07:07:02.509Z,21.6
2017-05-13T07:08:10.597Z,21.6
2017-05-13T07:09:18.727Z,21.6
2017-05-13T07:10:26.766Z,21.5
2017-05-13T07:11:34.853Z,21.5
2017-05-13T07:12:42.943Z,21.6
2017-05-13T07:13:51.060Z,21.5
2017-05-13T07:14:59.115Z,21.5
2017-05-13T07:16:07.197Z,21.5
2017-05-13T07:17:15.283Z,21.5
2017-05-13T07:18:23.379Z,21.5
2017-05-13T07:19:31.464Z,21.6
2017-05-13T07:20:39.553Z,21.6
2017-05-13T07:21:47.670Z,21.5
2017-05-13T07:22:55.723Z,21.6
2017-05-13T07:24:03.812Z,21.5
2017-05-13T07:25:11.899Z,21.6
2017-05-13T07:26:19.982Z,21.5
2017-05-13T07:27:28.069Z,21.5
2017-05-13T07:28:36.155Z,21.5
2017-05-13T07:29:44.243Z,21.6
2017-05-13T07:30:52.330Z,21.5
2017-05-13T07:32:00.421Z,21.6
2017-05-13T07:33:08.503Z,21.6
2017-05-13T07:34:16.586Z,21.5
2017-05-13T07:35:24.675Z,21.6
2017-05-13T07:36:32.764Z,21.5
2017-05-13T07:37:40.854Z,21.6
2017-05-13T07:38:49.007Z,21.5
2017-05-13T07:39:57.030Z,21.5
2017-05-13T07:41:05.525Z,21.5
2017-05-13T07:42:13.196Z,21.5
2017-05-13T07:43:21.282Z,21.5
2017-05-13T07:44:29.377Z,21.5
2017-05-13T07:45:37.479Z,21.5
2017-05-13T07:46:45.545Z,21.5
2017-05-13T07:47:53.641Z,21.4
2017-05-13T07:49:01.720Z,21.5
2017-05-13T07:50:09.945Z,21.5
2017-05-13T07:51:17.892Z,21.5
2017-05-13T07:52:25.984Z,21.5
2017-05-13T07:53:34.064Z,21.5
2017-05-13T07:54:42.155Z,21.5
2017-05-13T07:55:50.257Z,21.5
2017-05-13T07:56:58.328Z,21.5
2017-05-13T07:58:06.412Z,21.4
2017-05-13T07:59:14.497Z,21.5
2017-05-13T08:00:22.590Z,21.5
2017-05-13T08:01:30.675Z,21.5
2017-05-13T08:02:38.761Z,21.5
2017-05-13T08:03:46.845Z,21.5
2017-05-13T08:04:54.936Z,21.5
2017-05-13T08:06:03.021Z,21.5
2017-05-13T08:07:11.111Z,21.4
2017-05-13T08:08:19.195Z,21.5
2017-05-13T08:09:27.277Z,21.5
2017-05-13T08:10:35.362Z,21.5
2017-05-13T08:11:43.456Z,21.4
2017-05-13T08:12:51.606Z,21.4
2017-05-13T08:13:59.629Z,21.5
2017-05-13T08:15:07.726Z,21.5
2017-05-13T08:16:15.807Z,21.5
2017-05-13T08:17:23.893Z,21.5
2017-05-13T08:18:31.980Z,21.5
2017-05-13T08:19:40.063Z,21.5
2017-05-13T08:20:48.160Z,21.4
2017-05-13T08:21:56.237Z,21.5
2017-05-13T08:23:04.442Z,21.5
2017-05-13T08:24:12.412Z,21.5
2017-05-13T08:25:20.494Z,21.5
2017-05-13T08:26:28.585Z,21.5
2017-05-13T08:27:36.672Z,21.5
2017-05-13T08:28:44.765Z,21.5
2017-05-13T08:29:52.866Z,21.5
2017-05-13T08:31:00.930Z,21.5
2017-05-13T08:32:09.018Z,21.4
2017-05-13T08:33:17.104Z,21.5
2017-05-13T08:34:25.187Z,21.5
2017-05-13T08:35:33.275Z,21.5
2017-05-13T08:36:41.362Z,21.5
2017-05-13T08:37:49.449Z,21.4
2017-05-13T08:38:57.538Z,21.5
2017-05-13T08:40:05.635Z,21.4
2017-05-13T08:41:13.709Z,21.5
2017-05-13T08:42:21.793Z,21.5
2017-05-13T08:43:29.882Z,21.5
2017-05-13T08:44:37.971Z,21.5
2017-05-13T08:45:46.061Z,21.5
2017-05-13T08:46:54.184Z,21.4
2017-05-13T08:48:02.229Z,21.4
2017-05-13T08:49:10.313Z,21.4
2017-05-13T08:50:18.398Z,21.4
2017-05-13T08:51:26.494Z,21.4
2017-05-13T08:52:34.584Z,21.4
2017-05-13T08:53:42.667Z,21.5
2017-05-13T08:54:50.760Z,21.4
2017-05-13T08:55:58.845Z,21.4
2017-05-13T08:57:06.931Z,21.5
2017-05-13T08:58:15.016Z,21.4
2017-05-13T08:59:23.104Z,21.4
2017-05-13T09:00:31.191Z,21.4
2017-05-13T09:01:39.277Z,21.4
2017-05-13T09:02:47.383Z,21.4
2017-05-13T09:03:55.461Z,21.4
2017-05-13T09:05:03.531Z,21.4
2017-05-13T09:06:11.652Z,21.5
2017-05-13T09:07:19.712Z,21.4
2017-05-13T09:08:27.817Z,21.3
2017-05-13T09:09:35.894Z,21.4
2017-05-13T09:10:43.971Z,21.4
2017-05-13T09:11:52.056Z,21.4
2017-05-13T09:13:00.140Z,21.4
2017-05-13T09:14:08.224Z,21.4
2017-05-13T09:15:16.310Z,21.4
2017-05-13T09:16:24.399Z,21.3
2017-05-13T09:17:32.482Z,21.3
2017-05-13T09:18:40.570Z,21.4
2017-05-13T09:19:48.655Z,21.3
2017-05-13T09:20:56.744Z,21.3
2017-05-13T09:22:04.828Z,21.3
2017-05-13T09:23:12.916Z,21.4
2017-05-13T09:24:20.999Z,21.3
2017-05-13T09:25:29.091Z,21.4
2017-05-13T09:26:37.174Z,21.4
2017-05-13T09:27:45.263Z,21.4
2017-05-13T09:28:53.347Z,21.3
2017-05-13T09:30:01.432Z,21.3
2017-05-13T09:31:09.523Z,21.3
2017-05-13T09:32:17.608Z,21.3
2017-05-13T09:33:25.695Z,21.4
2017-05-13T09:34:33.775Z,21.3
2017-05-13T09:35:41.865Z,21.3
2017-05-13T09:36:49.953Z,21.3
2017-05-13T09:37:58.044Z,21.3
2017-05-13T09:39:06.137Z,21.3
2017-05-13T09:40:14.209Z,21.3
2017-05-13T09:41:22.300Z,21.4
2017-05-13T09:42:30.382Z,21.4
2017-05-13T09:43:38.465Z,21.4
2017-05-13T09:44:46.557Z,21.3
2017-05-13T09:45:54.644Z,21.4
2017-05-13T09:47:02.727Z,21.4
2017-05-13T09:48:10.812Z,21.3
2017-05-13T09:49:18.906Z,21.4
2017-05-13T09:50:26.991Z,21.3
2017-05-13T09:51:35.079Z,21.4
2017-05-13T09:52:43.163Z,21.3
2017-05-13T09:53:51.250Z,21.4
2017-05-13T09:54:59.366Z,21.3
2017-05-13T09:56:07.427Z,21.4
2017-05-13T09:57:15.507Z,21.4
2017-05-13T09:58:23.594Z,21.4
2017-05-13T09:59:31.681Z,21.4
2017-05-13T10:00:39.772Z,21.4
2017-05-13T10:01:47.857Z,21.3
2017-05-13T10:02:55.938Z,21.3
2017-05-13T10:04:04.024Z,21.4
2017-05-13T10:05:12.117Z,21.3
2017-05-13T10:06:20.209Z,21.4
2017-05-13T10:07:28.291Z,21.4
2017-05-13T10:08:36.381Z,21.3
2017-05-13T10:09:44.472Z,21.4
2017-05-13T10:10:52.548Z,21.4
2017-05-13T10:12:00.632Z,21.4
2017-05-13T10:13:08.721Z,21.3
2017-05-13T10:14:16.807Z,21.3
2017-05-13T10:15:24.897Z,21.4
2017-05-13T10:16:32.981Z,21.3
2017-05-13T10:17:41.066Z,21.4
2017-05-13T10:18:49.155Z,21.4
2017-05-13T10:19:57.244Z,21.4
2017-05-13T10:21:05.328Z,21.4
2017-05-13T10:22:13.416Z,21.3
2017-05-13T10:23:21.500Z,21.4
2017-05-13T10:24:29.588Z,21.4
2017-05-13T10:25:37.679Z,21.4
2017-05-13T10:26:45.760Z,21.5
2017-05-13T10:27:53.846Z,21.4
2017-05-13T10:29:01.938Z,21.4
2017-05-13T10:30:10.021Z,21.5
2017-05-13T10:31:18.122Z,21.5
2017-05-13T10:32:26.191Z,21.4
2017-05-13T10:33:34.290Z,21.6
2017-05-13T10:34:42.370Z,21.5
2017-05-13T10:35:50.453Z,21.5
2017-05-13T10:36:58.538Z,21.6
2017-05-13T10:38:06.630Z,21.5
2017-05-13T10:39:14.717Z,21.5
2017-05-13T10:40:22.803Z,21.6
2017-05-13T10:41:30.884Z,21.6
2017-05-13T10:42:38.975Z,21.6
2017-05-13T10:43:47.062Z,21.6
2017-05-13T10:44:55.154Z,21.6
2017-05-13T10:46:03.248Z,21.5
2017-05-13T10:47:11.333Z,21.6
2017-05-13T10:48:19.421Z,21.6
2017-05-13T10:49:27.507Z,21.7
2017-05-13T10:50:35.599Z,21.7
2017-05-13T10:51:43.683Z,21.6
2017-05-13T10:52:51.767Z,21.6
2017-05-13T10:53:59.858Z,21.6
2017-05-13T10:55:07.942Z,21.6
2017-05-13T10:56:16.027Z,21.6
2017-05-13T10:57:24.114Z,21.7
2017-05-13T10:58:32.201Z,21.7
2017-05-13T10:59:40.288Z,21.7
2017-05-13T11:00:48.376Z,21.5
2017-05-13T11:01:56.466Z,21.6
2017-05-13T11:03:04.549Z,21.6
2017-05-13T11:04:12.638Z,21.7
2017-05-13T11:05:20.723Z,21.7
2017-05-13T11:06:28.814Z,21.7
2017-05-13T11:07:36.898Z,21.6
2017-05-13T11:08:44.983Z,21.6
2017-05-13T11:09:53.078Z,21.7
2017-05-13T11:11:01.161Z,21.8
2017-05-13T11:12:09.264Z,21.6
2017-05-13T11:13:17.346Z,21.7
2017-05-13T11:14:25.430Z,21.7
2017-05-13T11:15:33.516Z,21.6
2017-05-13T11:16:41.599Z,21.6
2017-05-13T11:17:49.687Z,21.7
2017-05-13T11:18:57.776Z,21.6
2017-05-13T11:20:05.864Z,21.7
2017-05-13T11:21:13.952Z,21.6
2017-05-13T11:22:22.035Z,21.7
2017-05-13T11:23:30.121Z,21.7
2017-05-13T11:24:38.208Z,21.7
2017-05-13T11:25:46.297Z,21.6
2017-05-13T11:26:54.382Z,21.7
2017-05-13T11:28:02.473Z,21.6
2017-05-13T11:29:10.565Z,21.6
2017-05-13T11:30:18.655Z,21.7
2017-05-13T11:31:26.739Z,21.7
2017-05-13T11:32:34.828Z,21.6
2017-05-13T11:33:42.909Z,21.6
2017-05-13T11:34:51.001Z,21.7
2017-05-13T11:35:59.084Z,21.8
2017-05-13T11:37:07.172Z,21.7
2017-05-13T11:38:15.259Z,21.7
2017-05-13T11:39:23.348Z,21.7
2017-05-13T11:40:31.434Z,21.7
2017-05-13T11:41:39.522Z,21.7
2017-05-13T11:42:47.614Z,21.6
2017-05-13T11:43:55.696Z,21.7
2017-05-13T11:45:03.783Z,21.7
2017-05-13T11:46:11.868Z,21.7
2017-05-13T11:47:19.958Z,21.7
2017-05-13T11:48:28.044Z,21.7
2017-05-13T11:49:36.140Z,21.6
2017-05-13T11:50:44.218Z,21.7
2017-05-13T11:51:52.311Z,21.7
2017-05-13T11:53:00.395Z,21.6
2017-05-13T11:54:08.478Z,21.6
2017-05-13T11:55:16.570Z,21.6
2017-05-13T11:56:24.654Z,21.7
2017-05-13T11:57:32.742Z,21.7
2017-05-13T11:58:40.826Z,21.6
2017-05-13T11:59:48.915Z,21.6
2017-05-13T12:00:56.998Z,21.7
2017-05-13T12:02:05.084Z,21.7
2017-05-13T12:03:13.172Z,21.7
2017-05-13T12:04:21.266Z,21.6
2017-05-13T12:05:29.347Z,21.6
2017-05-13T12:06:37.436Z,21.7
2017-05-13T12:07:45.524Z,21.5
2017-05-13T12:08:53.608Z,21.6
2017-05-13T12:10:01.695Z,21.7
2017-05-13T12:11:09.784Z,21.8
2017-05-13T12:12:17.868Z,21.8
2017-05-13T12:13:25.950Z,21.6
2017-05-13T12:14:34.041Z,21.7
2017-05-13T12:15:42.127Z,21.6
2017-05-13T12:16:50.211Z,21.6
2017-05-13T12:17:58.303Z,21.6
2017-05-13T12:19:06.387Z,21.6
2017-05-13T12:20:14.474Z,21.6
2017-05-13T12:21:22.559Z,21.6
2017-05-13T12:22:30.646Z,21.6
2017-05-13T12:23:38.731Z,21.7
2017-05-13T12:24:46.820Z,21.6
2017-05-13T12:25:54.913Z,21.6
2017-05-13T12:27:02.995Z,21.6
2017-05-13T12:28:11.082Z,21.6
2017-05-13T12:29:19.170Z,21.6
2017-05-13T12:30:27.256Z,21.6
2017-05-13T12:31:35.339Z,21.6
2017-05-13T12:32:43.436Z,21.6
2017-05-13T12:33:51.513Z,21.5
2017-05-13T12:34:59.594Z,21.6
2017-05-13T12:36:07.682Z,21.6
2017-05-13T12:37:15.768Z,21.5
2017-05-13T12:38:23.860Z,21.6
2017-05-13T12:39:31.943Z,21.5
2017-05-13T12:40:40.033Z,21.5
2017-05-13T12:41:48.118Z,21.6
2017-05-13T12:42:56.214Z,21.5
2017-05-13T12:44:04.292Z,21.5
2017-05-13T12:45:12.378Z,21.6
2017-05-13T12:46:20.469Z,21.6
2017-05-13T12:47:28.555Z,21.6
2017-05-13T12:48:36.643Z,21.5
2017-05-13T12:49:44.931Z,21.5
2017-05-13T12:50:52.810Z,21.5
2017-05-13T12:52:00.950Z,21.5
2017-05-13T12:53:08.989Z,21.6
2017-05-13T12:54:17.071Z,21.5
2017-05-13T12:55:25.159Z,21.5
2017-05-13T12:56:33.246Z,21.5
2017-05-13T12:57:41.336Z,21.5
2017-05-13T12:58:49.420Z,21.4
2017-05-13T12:59:57.609Z,21.5
2017-05-13T13:01:05.606Z,21.5
2017-05-13T13:02:13.684Z,21.5
2017-05-13T13:03:21.897Z,21.5
2017-05-13T13:04:29.960Z,21.4
2017-05-13T13:05:38.136Z,21.5
2017-05-13T13:06:46.341Z,21.5
2017-05-13T13:07:54.128Z,21.4
2017-05-13T13:09:02.238Z,21.4
2017-05-13T13:10:10.302Z,21.5
2017-05-13T13:11:18.390Z,21.4
2017-05-13T13:12:26.478Z,21.4
2017-05-13T13:13:34.566Z,21.4
2017-05-13T13:14:42.658Z,21.4
2017-05-13T13:15:50.735Z,21.4
2017-05-13T13:16:58.824Z,21.4
2017-05-13T13:18:06.913Z,21.4
2017-05-13T13:19:14.996Z,21.3
2017-05-13T13:20:23.085Z,21.4
2017-05-13T13:21:31.167Z,21.4
2017-05-13T13:22:39.254Z,21.5
2017-05-13T13:23:47.344Z,21.4
2017-05-13T13:24:55.431Z,21.4
2017-05-13T13:26:03.519Z,21.4
2017-05-13T13:27:11.609Z,21.4
2017-05-13T13:28:19.734Z,21.4
2017-05-13T13:29:27.788Z,21.4
2017-05-13T13:30:35.869Z,21.4
2017-05-13T13:31:43.956Z,21.5
2017-05-13T13:32:52.041Z,21.4
2017-05-13T13:34:00.129Z,21.4
2017-05-13T13:35:08.216Z,21.4
2017-05-13T13:36:16.302Z,21.4
2017-05-13T13:37:24.398Z,21.4
2017-05-13T13:38:32.472Z,21.4
2017-05-13T13:39:40.560Z,21.4
2017-05-13T13:40:48.647Z,21.4
2017-05-13T13:41:56.733Z,21.5
2017-05-13T13:43:04.825Z,21.4
2017-05-13T13:44:12.908Z,21.4
2017-05-13T13:45:20.994Z,21.4
2017-05-13T13:46:29.081Z,21.4
2017-05-13T13:47:37.175Z,21.4
2017-05-13T13:48:45.257Z,21.5
2017-05-13T13:49:53.339Z,21.5
2017-05-13T13:51:01.426Z,21.4
2017-05-13T13:52:09.521Z,21.4
2017-05-13T13:53:17.597Z,21.5
2017-05-13T13:54:25.684Z,21.4
2017-05-13T13:55:33.774Z,21.5
2017-05-13T13:56:41.860Z,21.5
2017-05-13T13:57:49.949Z,21.5
2017-05-13T13:58:58.038Z,21.4
2017-05-13T14:00:06.119Z,21.4
2017-05-13T14:01:14.205Z,21.4
2017-05-13T14:02:22.288Z,21.5
2017-05-13T14:03:30.434Z,21.5
2017-05-13T14:04:38.462Z,21.4
2017-05-13T14:05:46.551Z,21.5
2017-05-13T14:06:54.657Z,21.5
2017-05-13T14:08:02.737Z,21.5
2017-05-13T14:09:10.813Z,21.5
2017-05-13T14:10:18.910Z,21.5
2017-05-13T14:11:26.995Z,21.4
2017-05-13T14:12:35.084Z,21.5
2017-05-13T14:13:43.170Z,21.5
2017-05-13T14:14:51.278Z,21.5
2017-05-13T14:15:59.344Z,21.5
2017-05-13T14:17:07.429Z,21.5
2017-05-13T14:18:15.514Z,21.5
2017-05-13T14:19:23.598Z,21.5
2017-05-13T14:20:31.729Z,21.5
2017-05-13T14:21:39.775Z,21.5
2017-05-13T14:22:47.864Z,21.4
2017-05-13T14:23:55.980Z,21.5
2017-05-13T14:25:04.031Z,21.5
2017-05-13T14:26:12.120Z,21.5
2017-05-13T14:27:20.207Z,21.4
2017-05-13T14:28:28.291Z,21.4
2017-05-13T14:29:36.374Z,21.4
2017-05-13T14:30:44.461Z,21.4
2017-05-13T14:31:52.547Z,21.5
2017-05-13T14:33:00.636Z,21.4
2017-05-13T14:34:08.721Z,21.4
2017-05-13T14:35:16.806Z,21.5
2017-05-13T14:36:24.896Z,21.5
2017-05-13T14:37:32.982Z,21.5
2017-05-13T14:38:41.088Z,21.5
2017-05-13T14:39:49.154Z,21.5
2017-05-13T14:40:57.288Z,21.5
2017-05-13T14:42:05.323Z,21.5
2017-05-13T14:43:13.463Z,21.5
2017-05-13T14:44:21.501Z,21.5
2017-05-13T14:45:29.583Z,21.4
2017-05-13T14:46:37.676Z,21.5
2017-05-13T14:47:45.761Z,21.5
2017-05-13T14:48:53.845Z,21.5
2017-05-13T14:50:01.929Z,21.5
2017-05-13T14:51:10.015Z,21.5
2017-05-13T14:52:18.106Z,21.5
2017-05-13T14:53:26.190Z,21.5
2017-05-13T14:54:34.278Z,21.5
2017-05-13T14:55:42.368Z,21.5
2017-05-13T14:56:50.452Z,21.5
2017-05-13T14:57:58.536Z,21.6
2017-05-13T14:59:06.620Z,21.5
2017-05-13T15:00:14.709Z,21.5
2017-05-13T15:01:22.792Z,21.5
2017-05-13T15:02:30.879Z,21.5
2017-05-13T15:03:38.970Z,21.5
2017-05-13T15:04:47.052Z,21.5